Time,TemperatureF,DewpointF,PressureIn,WindDirection,WindDirectionDegrees,WindSpeedMPH,WindSpeedGustMPH,Humidity,HourlyPrecipIn,Conditions,Clouds,dailyrainin,SoftwareType,DateUTC
2013-07-08 00:01:00,65.0,55.0,30.10,SW,216,0.0,1.0,69,0.00,,,0.16,,2013-07-08 06:01:00,
2013-07-08 00:11:00,66.0,56.0,30.11,SW,217,0.0,1.0,69,0.00,,,0.16,,2013-07-08 06:11:00,
2013-07-08 00:22:00,66.0,56.0,30.11,SW,217,0.0,2.0,69,0.00,,,0.16,,2013-07-08 06:22:00,
2013-07-08 00:33:00,65.0,55.0,30.10,SW,217,0.0,3.0,69,0.00,,,0.16,,2013-07-08 06:33:00,
2013-07-08 00:43:00,65.0,54.0,30.09,SW,217,2.0,2.0,68,0.00,,,0.16,,2013-07-08 06:43:00,
2013-07-08 00:53:00,65.0,55.0,30.09,SW,217,0.0,2.0,70,0.00,,,0.16,,2013-07-08 06:53:00,
2013-07-08 01:02:00,65.0,55.0,30.11,SW,217,0.0,1.0,70,0.00,,,0.16,,2013-07-08 07:02:00,
2013-07-08 01:12:00,64.0,54.0,30.11,SW,219,2.0,3.0,70,0.00,,,0.16,,2013-07-08 07:12:00,
2013-07-08 01:22:00,64.0,55.0,30.11,SW,221,1.0,3.0,72,0.00,,,0.16,,2013-07-08 07:22:00,
2013-07-08 01:34:00,64.0,56.0,30.09,North,9,1.0,6.0,74,0.00,,,0.16,,2013-07-08 07:34:00,
2013-07-08 01:44:00,64.0,56.0,30.10,North,7,0.0,3.0,74,0.00,,,0.16,,2013-07-08 07:44:00,
2013-07-08 01:52:00,64.0,56.0,30.10,North,10,0.0,3.0,74,0.00,,,0.16,,2013-07-08 07:52:00,
2013-07-08 02:02:00,64.0,56.0,30.10,North,7,0.0,5.0,74,0.00,,,0.16,,2013-07-08 08:02:00,
2013-07-08 02:12:00,63.0,55.0,30.10,North,7,0.0,1.0,74,0.00,,,0.16,,2013-07-08 08:12:00,
2013-07-08 02:22:00,63.0,55.0,30.10,North,6,0.0,1.0,75,0.00,,,0.16,,2013-07-08 08:22:00,
2013-07-08 02:33:00,62.0,54.0,30.10,North,6,0.0,0.0,76,0.00,,,0.16,,2013-07-08 08:33:00,
2013-07-08 02:42:00,62.0,54.0,30.11,North,6,0.0,1.0,76,0.00,,,0.16,,2013-07-08 08:42:00,
2013-07-08 02:52:00,62.0,54.0,30.11,North,7,0.0,1.0,76,0.00,,,0.16,,2013-07-08 08:52:00,
2013-07-08 03:01:00,62.0,54.0,30.11,North,7,0.0,1.0,76,0.00,,,0.16,,2013-07-08 09:01:00,
2013-07-08 03:11:00,62.0,55.0,30.12,North,7,0.0,1.0,77,0.00,,,0.16,,2013-07-08 09:11:00,
2013-07-08 03:22:00,62.0,55.0,30.12,North,7,0.0,1.0,77,0.00,,,0.16,,2013-07-08 09:22:00,
2013-07-08 03:34:00,62.0,55.0,30.09,North,7,0.0,1.0,77,0.00,,,0.16,,2013-07-08 09:34:00,
2013-07-08 03:43:00,62.0,55.0,30.08,North,7,0.0,2.0,78,0.00,,,0.16,,2013-07-08 09:43:00,
2013-07-08 03:52:00,62.0,54.0,30.08,North,9,0.0,5.0,76,0.00,,,0.16,,2013-07-08 09:52:00,
2013-07-08 04:01:00,62.0,54.0,30.09,North,9,1.0,1.0,75,0.00,,,0.16,,2013-07-08 10:01:00,
2013-07-08 04:11:00,62.0,54.0,30.08,North,9,0.0,2.0,75,0.00,,,0.16,,2013-07-08 10:11:00,
2013-07-08 04:22:00,62.0,54.0,30.08,North,9,0.0,1.0,76,0.00,,,0.16,,2013-07-08 10:22:00,
2013-07-08 04:34:00,62.0,54.0,30.08,North,10,0.0,1.0,74,0.00,,,0.16,,2013-07-08 10:34:00,
2013-07-08 04:53:00,62.0,54.0,30.08,North,10,0.0,3.0,74,0.00,,,0.16,,2013-07-08 10:53:00,
2013-07-08 05:02:00,62.0,54.0,30.08,North,11,0.0,4.0,76,0.00,,,0.16,,2013-07-08 11:02:00,
2013-07-08 05:11:00,62.0,54.0,30.08,North,10,0.0,3.0,76,0.00,,,0.16,,2013-07-08 11:11:00,
2013-07-08 05:22:00,61.0,54.0,30.07,North,10,0.0,0.0,77,0.00,,,0.16,,2013-07-08 11:22:00,
2013-07-08 05:33:00,60.0,53.0,30.07,North,10,0.0,1.0,78,0.00,,,0.16,,2013-07-08 11:33:00,
2013-07-08 05:43:00,60.0,53.0,30.07,North,9,0.0,1.0,79,0.00,,,0.16,,2013-07-08 11:43:00,
2013-07-08 05:52:00,60.0,54.0,30.07,North,10,0.0,2.0,80,0.00,,,0.16,,2013-07-08 11:52:00,
2013-07-08 06:01:00,59.0,53.0,30.07,North,9,0.0,1.0,81,0.00,,,0.16,,2013-07-08 12:01:00,
2013-07-08 06:11:00,59.0,54.0,30.08,North,11,0.0,1.0,82,0.00,,,0.16,,2013-07-08 12:11:00,
2013-07-08 06:22:00,59.0,54.0,30.08,North,9,0.0,1.0,82,0.00,,,0.16,,2013-07-08 12:22:00,
2013-07-08 06:34:00,59.0,54.0,30.08,North,11,0.0,1.0,82,0.00,,,0.16,,2013-07-08 12:34:00,
2013-07-08 06:53:00,60.0,55.0,30.08,North,11,0.0,2.0,83,0.00,,,0.16,,2013-07-08 12:53:00,
2013-07-08 07:01:00,61.0,55.0,30.09,North,10,0.0,1.0,82,0.00,,,0.16,,2013-07-08 13:01:00,
2013-07-08 07:11:00,62.0,56.0,30.09,North,10,0.0,1.0,81,0.00,,,0.16,,2013-07-08 13:11:00,
2013-07-08 07:22:00,63.0,56.0,30.08,North,11,0.0,2.0,77,0.00,,,0.16,,2013-07-08 13:22:00,
2013-07-08 07:33:00,64.0,55.0,30.10,North,10,0.0,1.0,72,0.00,,,0.16,,2013-07-08 13:33:00,
2013-07-08 07:42:00,65.0,55.0,30.10,North,7,0.0,2.0,70,0.00,,,0.16,,2013-07-08 13:42:00,
2013-07-08 07:53:00,66.0,55.0,30.09,North,5,0.0,2.0,67,0.00,,,0.16,,2013-07-08 13:53:00,
2013-07-08 08:02:00,68.0,56.0,30.11,North,5,1.0,2.0,65,0.00,,,0.16,,2013-07-08 14:02:00,
2013-07-08 08:12:00,69.0,55.0,30.10,North,5,0.0,1.0,60,0.00,,,0.16,,2013-07-08 14:12:00,
2013-07-08 08:22:00,70.0,56.0,30.10,North,5,1.0,1.0,62,0.00,,,0.16,,2013-07-08 14:22:00,
2013-07-08 08:34:00,73.0,58.0,30.11,NNE,15,0.0,2.0,60,0.00,,,0.16,,2013-07-08 14:34:00,
2013-07-08 08:43:00,74.0,55.0,30.11,NNE,15,0.0,2.0,52,0.00,,,0.16,,2013-07-08 14:43:00,
2013-07-08 08:53:00,75.0,55.0,30.11,NNE,14,0.0,2.0,49,0.00,,,0.16,,2013-07-08 14:53:00,
2013-07-08 09:01:00,76.0,57.0,30.12,NNE,22,0.0,2.0,51,0.00,,,0.16,,2013-07-08 15:01:00,
2013-07-08 09:11:00,76.0,57.0,30.12,NNE,33,0.0,2.0,52,0.00,,,0.16,,2013-07-08 15:11:00,
2013-07-08 09:22:00,76.0,57.0,30.13,NE,34,1.0,1.0,51,0.00,,,0.16,,2013-07-08 15:22:00,
2013-07-08 09:33:00,77.0,56.0,30.13,NE,34,0.0,3.0,49,0.00,,,0.16,,2013-07-08 15:33:00,
2013-07-08 09:43:00,78.0,57.0,30.13,NE,34,0.0,5.0,48,0.00,,,0.16,,2013-07-08 15:43:00,
2013-07-08 09:53:00,78.0,57.0,30.13,NE,34,0.0,5.0,48,0.00,,,0.16,,2013-07-08 15:53:00,
2013-07-08 10:01:00,79.0,53.0,30.13,NE,36,0.0,3.0,41,0.00,,,0.16,,2013-07-08 16:01:00,
2013-07-08 10:11:00,79.0,54.0,30.13,NE,42,0.0,3.0,42,0.00,,,0.16,,2013-07-08 16:11:00,
2013-07-08 10:22:00,80.0,51.0,30.13,NE,37,0.0,2.0,37,0.00,,,0.16,,2013-07-08 16:22:00,
2013-07-08 10:33:00,81.0,52.0,30.14,NE,38,0.0,6.0,36,0.00,,,0.16,,2013-07-08 16:33:00,
2013-07-08 10:43:00,81.0,55.0,30.14,WNW,296,5.0,5.0,41,0.00,,,0.16,,2013-07-08 16:43:00,
2013-07-08 10:53:00,82.0,56.0,30.14,NNE,28,1.0,5.0,41,0.00,,,0.16,,2013-07-08 16:53:00,
2013-07-08 11:13:00,83.0,50.0,30.13,SSE,167,0.0,4.0,32,0.00,,,0.16,,2013-07-08 17:13:00,
2013-07-08 11:25:00,84.0,53.0,30.12,NNE,27,2.0,4.0,35,0.00,,,0.16,,2013-07-08 17:25:00,
2013-07-08 11:36:00,83.0,52.0,30.13,NE,46,3.0,5.0,35,0.00,,,0.16,,2013-07-08 17:36:00,
2013-07-08 11:45:00,84.0,53.0,30.14,ENE,57,0.0,9.0,34,0.00,,,0.16,,2013-07-08 17:45:00,
2013-07-08 11:54:00,85.0,52.0,30.14,WSW,246,0.0,3.0,32,0.00,,,0.16,,2013-07-08 17:54:00,
2013-07-08 12:04:00,86.0,51.0,30.13,WNW,289,1.0,6.0,30,0.00,,,0.16,,2013-07-08 18:04:00,
2013-07-08 12:29:00,87.0,53.0,30.12,NE,44,5.0,6.0,31,0.00,,,0.16,,2013-07-08 18:29:00,
2013-07-08 12:47:00,84.0,50.0,30.12,WNW,283,0.0,4.0,31,0.00,,,0.16,,2013-07-08 18:47:00,
2013-07-08 13:08:00,85.0,53.0,30.12,NE,38,2.0,6.0,34,0.00,,,0.16,,2013-07-08 19:08:00,
2013-07-08 13:17:00,86.0,52.0,30.13,NE,51,1.0,4.0,31,0.00,,,0.16,,2013-07-08 19:17:00,
2013-07-08 13:36:00,85.0,50.0,30.11,ENE,60,0.0,6.0,30,0.00,,,0.16,,2013-07-08 19:36:00,
2013-07-08 13:47:00,84.0,51.0,30.10,NE,38,3.0,6.0,32,0.00,,,0.16,,2013-07-08 19:47:00,
2013-07-08 14:07:00,85.0,49.0,30.10,NE,53,3.0,7.0,29,0.00,,,0.16,,2013-07-08 20:07:00,
2013-07-08 14:17:00,87.0,48.0,30.09,NE,40,0.0,5.0,26,0.00,,,0.16,,2013-07-08 20:17:00,
2013-07-08 14:26:00,87.0,47.0,30.09,NE,56,6.0,7.0,25,0.00,,,0.16,,2013-07-08 20:26:00,
2013-07-08 14:56:00,86.0,46.0,30.10,ESE,105,0.0,3.0,25,0.00,,,0.16,,2013-07-08 20:56:00,
2013-07-08 15:08:00,85.0,46.0,30.12,WSW,254,2.0,4.0,26,0.00,,,0.16,,2013-07-08 21:08:00,
2013-07-08 15:17:00,83.0,46.0,30.12,SSW,200,9.0,11.0,27,0.00,,,0.00,,2013-07-08 21:17:00,
2013-07-08 15:28:00,82.0,46.0,30.12,SSW,204,1.0,9.0,28,0.00,,,0.00,,2013-07-08 21:28:00,
2013-07-08 15:38:00,83.0,42.0,30.12,SSW,211,3.0,9.0,24,0.00,,,0.00,,2013-07-08 21:38:00,
2013-07-08 15:57:00,86.0,46.0,30.11,SSW,207,1.0,6.0,25,0.00,,,0.00,,2013-07-08 21:57:00,
2013-07-08 16:49:00,80.0,41.0,30.10,WNW,283,5.0,24.0,25,0.00,,,0.00,,2013-07-08 22:49:00,
2013-07-08 17:17:00,81.0,41.0,30.10,West,279,10.0,15.0,24,0.00,,,0.00,,2013-07-08 23:17:00,
2013-07-08 17:28:00,81.0,41.0,30.10,West,260,6.0,15.0,24,0.00,,,0.00,,2013-07-08 23:28:00,
2013-07-08 17:38:00,82.0,39.0,30.10,WNW,295,2.0,13.0,22,0.00,,,0.00,,2013-07-08 23:38:00,
2013-07-08 17:49:00,84.0,40.0,30.10,NNW,333,4.0,12.0,21,0.00,,,0.00,,2013-07-08 23:49:00,
2013-07-08 18:18:00,86.0,40.0,30.10,WNW,297,4.0,7.0,20,0.00,,,0.00,,2013-07-09 00:18:00,
2013-07-08 18:40:00,89.0,38.0,30.09,WNW,288,6.0,13.0,17,0.00,,,0.00,,2013-07-09 00:40:00,
2013-07-08 19:07:00,88.0,38.0,30.08,NW,304,5.0,13.0,17,0.00,,,0.00,,2013-07-09 01:07:00,
2013-07-08 19:57:00,87.0,37.0,30.08,NW,307,2.0,5.0,17,0.00,,,0.00,,2013-07-09 01:57:00,
2013-07-08 20:20:00,-999.0,-99.9,30.08,NW,307,0.0,5.0,18,0.00,,,0.00,,2013-07-09 02:20:00,
2013-07-08 20:40:00,85.0,38.0,30.10,NW,307,0.0,3.0,19,0.00,,,0.00,,2013-07-09 02:40:00,
2013-07-08 21:08:00,78.0,40.0,30.10,NW,305,0.0,0.0,26,0.00,,,0.00,,2013-07-09 03:08:00,
2013-07-08 21:18:00,76.0,40.0,30.10,NW,307,0.0,2.0,27,0.00,,,0.00,,2013-07-09 03:18:00,
2013-07-08 21:29:00,75.0,40.0,30.10,NW,308,1.0,2.0,28,0.00,,,0.00,,2013-07-09 03:29:00,
2013-07-08 21:58:00,74.0,40.0,30.13,WNW,302,0.0,1.0,29,0.00,,,0.00,,2013-07-09 03:58:00,
2013-07-08 22:02:00,72.0,44.0,30.12,NW,315,0.0,2.0,37,0.00,,,0.00,,2013-07-09 04:02:00,
2013-07-08 22:11:00,72.0,46.0,30.16,NW,315,0.0,1.0,40,0.00,,,0.00,,2013-07-09 04:11:00,
2013-07-08 22:22:00,71.0,45.0,30.16,NW,315,0.0,1.0,39,0.00,,,0.00,,2013-07-09 04:22:00,
2013-07-08 22:33:00,70.0,46.0,30.15,NW,318,0.0,1.0,42,0.00,,,0.00,,2013-07-09 04:33:00,
2013-07-08 22:42:00,70.0,47.0,30.15,NW,316,0.0,1.0,44,0.00,,,0.00,,2013-07-09 04:42:00,
2013-07-08 22:53:00,70.0,47.0,30.15,NW,315,0.0,1.0,44,0.00,,,0.00,,2013-07-09 04:53:00,
2013-07-08 23:02:00,69.0,47.0,30.16,NW,315,0.0,1.0,45,0.00,,,0.00,,2013-07-09 05:02:00,
2013-07-08 23:11:00,69.0,46.0,30.14,NW,315,0.0,1.0,44,0.00,,,0.00,,2013-07-09 05:11:00,
2013-07-08 23:22:00,69.0,46.0,30.14,NW,316,0.0,1.0,43,0.00,,,0.00,,2013-07-09 05:22:00,
2013-07-08 23:33:00,68.0,44.0,30.15,NW,315,0.0,1.0,42,0.00,,,0.00,,2013-07-09 05:33:00,
2013-07-08 23:52:00,68.0,45.0,30.15,NW,315,0.0,1.0,43,0.00,,,0.00,,2013-07-09 05:52:00,